Rebun Maru No.3 — 7JNN — position and weather

sailwx.info

Track history (hours):
 
Tides and Currents Weather Stations Pressure Air Temp Water Temp Dewpoint Dewpoint Depression Visibility Wind Speed Wind Dir Waves Ship Positions

Rebun Maru No.3

Last reported at 2017-Oct-16 08:50 UTC. Time now 2017-Oct-23 06:07 UTC.
Position N 34°35' E 134°50'.

Length 81 m; draft 5 m.

Type: Tanker. MMSI: 431004095.

Date/timePositionNaut miles runAvg speedWind from/ knotsBaromVisibWave heightAir tempDewpointWater temp
2017-Oct-16 08:50N 34°35' E 134°50'516.8
2017-Oct-16 08:30N 34°36' E 134°56'714.9
2017-Oct-16 08:01N 34°35' E 135°05'714.5
2017-Oct-16 07:30N 34°28' E 135°03'1413.3
2017-Oct-16 06:27N 34°14' E 135°01'613.9
2017-Oct-16 06:00N 34°09' E 135°06'2 0.4
2017-Oct-16 00:24N 34°07' E 135°07'1 1.2
2017-Oct-16 00:00N 34°08' E 135°07'0 0.1
2017-Oct-15 23:23N 34°08' E 135°07'0 0.0
2017-Oct-15 22:59N 34°08' E 135°07'0 0.0
2017-Oct-15 22:30N 34°08' E 135°07'0 0.0
2017-Oct-15 22:00N 34°08' E 135°07'0 0.0
2017-Oct-15 21:30N 34°08' E 135°07'0 0.0
2017-Oct-15 21:00N 34°08' E 135°07'0 0.0
2017-Oct-15 20:30N 34°08' E 135°07'0 0.0
2017-Oct-15 20:00N 34°08' E 135°07'0 0.0
2017-Oct-15 19:30N 34°08' E 135°07'0 0.0
2017-Oct-15 19:00N 34°08' E 135°07'0 0.0
2017-Oct-15 18:30N 34°08' E 135°07'0 0.0
2017-Oct-15 18:00N 34°08' E 135°07'0 0.0
2017-Oct-15 17:30N 34°08' E 135°07'0 0.0
2017-Oct-15 17:00N 34°08' E 135°07'0 0.1
2017-Oct-15 16:30N 34°08' E 135°07'4 8.9
2017-Oct-15 16:00N 34°11' E 135°03'813.6
2017-Oct-15 15:23N 34°18' E 134°58'514.2
2017-Oct-15 15:01N 34°23' E 134°60'1413.5
2017-Oct-15 14:00N 34°37' E 135°01'10 0.2
2017-Oct-13 11:16N 34°34' E 134°49'412.4
2017-Oct-13 10:57N 34°36' E 134°54'611.9
2017-Oct-13 10:24N 34°37' E 135°01'512.4
2017-Oct-13 09:59N 34°35' E 135°07'613.2
2017-Oct-13 09:30N 34°34' E 135°15'713.4
2017-Oct-13 09:00N 34°33' E 135°23'3 5.0
2017-Oct-13 08:30N 34°33' E 135°26'0 0.0
2017-Oct-13 07:47N 34°33' E 135°26'0 0.0
2017-Oct-13 06:23N 34°33' E 135°26'0 0.0
2017-Oct-13 05:59N 34°33' E 135°26'0 0.0
2017-Oct-13 03:53N 34°33' E 135°26'0 0.0
2017-Oct-13 03:30N 34°33' E 135°26'0 0.9
2017-Oct-13 03:00N 34°33' E 135°25'3 6.1
2017-Oct-13 02:30N 34°33' E 135°21'2 4.5
2017-Oct-13 02:00N 34°32' E 135°19'0 0.0
2017-Oct-13 00:46N 34°32' E 135°19'0 0.1
2017-Oct-13 00:10N 34°32' E 135°19'0 0.0
2017-Oct-12 23:52N 34°32' E 135°19'0 0.0
2017-Oct-12 23:28N 34°32' E 135°19'0 0.0
2017-Oct-12 22:16N 34°32' E 135°19'0 0.2
2017-Oct-12 21:58N 34°32' E 135°19'0 0.0
2017-Oct-12 21:16N 34°32' E 135°19'0 0.0
2017-Oct-12 20:58N 34°32' E 135°19'0 0.0
2017-Oct-12 20:28N 34°32' E 135°19'0 0.0
2017-Oct-12 19:40N 34°32' E 135°19'0 0.2
2017-Oct-12 19:22N 34°32' E 135°19'0 0.0
2017-Oct-12 18:46N 34°32' E 135°19'0 0.0
2017-Oct-12 18:28N 34°32' E 135°19'0 0.0
2017-Oct-12 17:58N 34°32' E 135°19'0 0.0
2017-Oct-12 17:22N 34°32' E 135°19'0 0.1
2017-Oct-12 16:52N 34°32' E 135°19'0 0.1
2017-Oct-12 16:16N 34°32' E 135°19'0 0.0
2017-Oct-12 15:58N 34°32' E 135°19'0 0.0
2017-Oct-12 15:28N 34°32' E 135°19'0 0.0
2017-Oct-12 14:58N 34°32' E 135°19'0 0.0
2017-Oct-12 14:22N 34°32' E 135°19'0 0.0
2017-Oct-12 13:58N 34°32' E 135°19'0 0.0
2017-Oct-12 13:28N 34°32' E 135°19'0 0.0
2017-Oct-12 12:58N 34°32' E 135°19'0 0.0
2017-Oct-12 12:28N 34°32' E 135°19'0 0.0
2017-Oct-12 11:52N 34°32' E 135°19'0 0.1
2017-Oct-12 11:28N 34°32' E 135°19'0 0.1
2017-Oct-12 10:52N 34°32' E 135°19'0 0.1
2017-Oct-12 10:28N 34°32' E 135°19'0 0.0
2017-Oct-12 09:58N 34°32' E 135°19'0 0.0
2017-Oct-12 09:04N 34°32' E 135°19'0 0.0
2017-Oct-12 08:58N 34°32' E 135°19'0 0.0
2017-Oct-12 08:22N 34°32' E 135°19'0 0.0
2017-Oct-12 07:58N 34°32' E 135°19'0 0.1
2017-Oct-12 07:16N 34°32' E 135°19'0 0.0
2017-Oct-12 06:52N 34°32' E 135°19'0 0.0
2017-Oct-12 06:28N 34°32' E 135°19'0 0.1
2017-Oct-12 05:57N 34°32' E 135°19'4 9.9
2017-Oct-12 05:30N 34°30' E 135°14'713.6
2017-Oct-12 05:00N 34°25' E 135°09'1213.8
2017-Oct-12 04:08N 34°16' E 134°59'214.7
2017-Oct-12 03:59N 34°14' E 134°59'613.4
2017-Oct-12 03:30N 34°08' E 134°57'  
2017-Oct-09 05:41N 33°57' E 134°55'414.1
2017-Oct-09 05:23N 34°01' E 134°58'513.6
2017-Oct-09 05:00N 34°05' E 135°02'510.7
2017-Oct-09 04:30N 34°07' E 135°07'0 0.4
2017-Oct-09 03:54N 34°07' E 135°07'0 0.0
2017-Oct-09 03:30N 34°07' E 135°07'0 0.0
2017-Oct-09 02:57N 34°07' E 135°07'0 0.0
2017-Oct-09 02:24N 34°07' E 135°07'0 0.0
2017-Oct-09 02:00N 34°07' E 135°07'0 0.0
2017-Oct-09 01:30N 34°07' E 135°07'0 0.0
2017-Oct-09 01:00N 34°07' E 135°07'0 0.0
2017-Oct-09 00:30N 34°07' E 135°07'0 0.0
2017-Oct-09 00:00N 34°07' E 135°07'0 0.7
2017-Oct-08 23:30N 34°07' E 135°07'1 1.3
2017-Oct-08 22:58N 34°08' E 135°07'0 0.1
2017-Oct-08 22:28N 34°08' E 135°07'0 0.0
2017-Oct-08 21:58N 34°08' E 135°07'0 0.1
2017-Oct-08 21:28N 34°08' E 135°07'0 0.0
2017-Oct-08 20:58N 34°08' E 135°07'0 0.1
2017-Oct-08 20:28N 34°08' E 135°07'0 0.1
2017-Oct-08 19:58N 34°08' E 135°07'0 0.1
2017-Oct-08 19:28N 34°08' E 135°07'0 0.0
2017-Oct-08 18:58N 34°08' E 135°07'0 0.1
2017-Oct-08 18:22N 34°08' E 135°07'0 0.1
2017-Oct-08 18:00N 34°08' E 135°07'4 8.4
2017-Oct-08 17:29N 34°05' E 135°03'7 0.2
2017-Oct-07 04:00N 33°58' E 135°02'714.5
2017-Oct-07 03:30N 34°05' E 135°03'511.0
2017-Oct-07 03:01N 34°09' E 135°08'0 0.3
2017-Oct-07 02:22N 34°09' E 135°08'0 0.0
2017-Oct-07 01:58N 34°09' E 135°08'0 0.0
2017-Oct-07 01:25N 34°09' E 135°08'0 0.1
2017-Oct-07 00:58N 34°10' E 135°08'0 0.0
2017-Oct-07 00:28N 34°10' E 135°08'0 0.0
2017-Oct-06 23:58N 34°10' E 135°08'0 0.0
2017-Oct-06 23:28N 34°10' E 135°08'0 0.0
2017-Oct-06 22:58N 34°10' E 135°08'0 0.0
2017-Oct-06 22:28N 34°09' E 135°08'0 0.0
2017-Oct-06 21:58N 34°09' E 135°08'0 0.0
2017-Oct-06 21:28N 34°09' E 135°08'0 0.0
2017-Oct-06 20:58N 34°09' E 135°08'0 0.0
2017-Oct-06 20:28N 34°09' E 135°08'0 0.0
2017-Oct-06 19:58N 34°10' E 135°08'0 0.0
2017-Oct-06 19:28N 34°09' E 135°08'0 0.0
2017-Oct-06 18:58N 34°10' E 135°08'0 0.0
2017-Oct-06 18:28N 34°10' E 135°08'0 0.0
2017-Oct-06 17:58N 34°10' E 135°08'0 0.0
2017-Oct-06 17:28N 34°09' E 135°08'0 0.0
2017-Oct-06 16:58N 34°09' E 135°08'0 0.1
2017-Oct-06 16:28N 34°09' E 135°08'0 0.0
2017-Oct-06 15:49N 34°09' E 135°08'0 0.0
2017-Oct-06 15:28N 34°09' E 135°08'0 0.0
2017-Oct-06 14:58N 34°09' E 135°08'0 0.0
2017-Oct-06 14:25N 34°09' E 135°08'0 0.0
2017-Oct-06 13:52N 34°09' E 135°08'0 0.0
2017-Oct-06 13:28N 34°09' E 135°08'0 0.0
2017-Oct-06 12:58N 34°09' E 135°08'0 0.0
2017-Oct-06 12:28N 34°09' E 135°08'0 0.0
2017-Oct-06 11:58N 34°09' E 135°08'0 0.0
2017-Oct-06 11:28N 34°09' E 135°08'0 0.0
2017-Oct-06 10:58N 34°09' E 135°08'0 0.0
2017-Oct-06 10:22N 34°09' E 135°08'0 0.1
2017-Oct-06 09:46N 34°09' E 135°08'0 0.2
2017-Oct-06 09:28N 34°09' E 135°08'0 0.0
2017-Oct-06 08:55N 34°09' E 135°08'  
Track history (hours):
 
Tides and Currents Weather Stations Pressure Air Temp Water Temp Dewpoint Dewpoint Depression Visibility Wind Speed Wind Dir Waves Ship Positions

Rebun Maru No.3

Last reported at 2017-Oct-16 08:50 UTC. Time now 2017-Oct-23 06:07 UTC.
Position N 34°35' E 134°50'.

Length 81 m; draft 5 m.

Type: Tanker. MMSI: 431004095.

Date/timePositionNaut miles runAvg speedWind from/ knotsBaromVisibWave heightAir tempDewpointWater temp
2017-Oct-16 08:50N 34°35' E 134°50'516.8
2017-Oct-16 08:30N 34°36' E 134°56'714.9
2017-Oct-16 08:01N 34°35' E 135°05'714.5
2017-Oct-16 07:30N 34°28' E 135°03'1413.3
2017-Oct-16 06:27N 34°14' E 135°01'613.9
2017-Oct-16 06:00N 34°09' E 135°06'2 0.4
2017-Oct-16 00:24N 34°07' E 135°07'1 1.2
2017-Oct-16 00:00N 34°08' E 135°07'0 0.1
2017-Oct-15 23:23N 34°08' E 135°07'0 0.0
2017-Oct-15 22:59N 34°08' E 135°07'0 0.0
2017-Oct-15 22:30N 34°08' E 135°07'0 0.0
2017-Oct-15 22:00N 34°08' E 135°07'0 0.0
2017-Oct-15 21:30N 34°08' E 135°07'0 0.0
2017-Oct-15 21:00N 34°08' E 135°07'0 0.0
2017-Oct-15 20:30N 34°08' E 135°07'0 0.0
2017-Oct-15 20:00N 34°08' E 135°07'0 0.0
2017-Oct-15 19:30N 34°08' E 135°07'0 0.0
2017-Oct-15 19:00N 34°08' E 135°07'0 0.0
2017-Oct-15 18:30N 34°08' E 135°07'0 0.0
2017-Oct-15 18:00N 34°08' E 135°07'0 0.0
2017-Oct-15 17:30N 34°08' E 135°07'0 0.0
2017-Oct-15 17:00N 34°08' E 135°07'0 0.1
2017-Oct-15 16:30N 34°08' E 135°07'4 8.9
2017-Oct-15 16:00N 34°11' E 135°03'813.6
2017-Oct-15 15:23N 34°18' E 134°58'514.2
2017-Oct-15 15:01N 34°23' E 134°60'1413.5
2017-Oct-15 14:00N 34°37' E 135°01'10 0.2
2017-Oct-13 11:16N 34°34' E 134°49'412.4
2017-Oct-13 10:57N 34°36' E 134°54'611.9
2017-Oct-13 10:24N 34°37' E 135°01'512.4
2017-Oct-13 09:59N 34°35' E 135°07'613.2
2017-Oct-13 09:30N 34°34' E 135°15'713.4
2017-Oct-13 09:00N 34°33' E 135°23'3 5.0
2017-Oct-13 08:30N 34°33' E 135°26'0 0.0
2017-Oct-13 07:47N 34°33' E 135°26'0 0.0
2017-Oct-13 06:23N 34°33' E 135°26'0 0.0
2017-Oct-13 05:59N 34°33' E 135°26'0 0.0
2017-Oct-13 03:53N 34°33' E 135°26'0 0.0
2017-Oct-13 03:30N 34°33' E 135°26'0 0.9
2017-Oct-13 03:00N 34°33' E 135°25'3 6.1
2017-Oct-13 02:30N 34°33' E 135°21'2 4.5
2017-Oct-13 02:00N 34°32' E 135°19'0 0.0
2017-Oct-13 00:46N 34°32' E 135°19'0 0.1
2017-Oct-13 00:10N 34°32' E 135°19'0 0.0
2017-Oct-12 23:52N 34°32' E 135°19'0 0.0
2017-Oct-12 23:28N 34°32' E 135°19'0 0.0
2017-Oct-12 22:16N 34°32' E 135°19'0 0.2
2017-Oct-12 21:58N 34°32' E 135°19'0 0.0
2017-Oct-12 21:16N 34°32' E 135°19'0 0.0
2017-Oct-12 20:58N 34°32' E 135°19'0 0.0
2017-Oct-12 20:28N 34°32' E 135°19'0 0.0
2017-Oct-12 19:40N 34°32' E 135°19'0 0.2
2017-Oct-12 19:22N 34°32' E 135°19'0 0.0
2017-Oct-12 18:46N 34°32' E 135°19'0 0.0
2017-Oct-12 18:28N 34°32' E 135°19'0 0.0
2017-Oct-12 17:58N 34°32' E 135°19'0 0.0
2017-Oct-12 17:22N 34°32' E 135°19'0 0.1
2017-Oct-12 16:52N 34°32' E 135°19'0 0.1
2017-Oct-12 16:16N 34°32' E 135°19'0 0.0
2017-Oct-12 15:58N 34°32' E 135°19'0 0.0
2017-Oct-12 15:28N 34°32' E 135°19'0 0.0
2017-Oct-12 14:58N 34°32' E 135°19'0 0.0
2017-Oct-12 14:22N 34°32' E 135°19'0 0.0
2017-Oct-12 13:58N 34°32' E 135°19'0 0.0
2017-Oct-12 13:28N 34°32' E 135°19'0 0.0
2017-Oct-12 12:58N 34°32' E 135°19'0 0.0
2017-Oct-12 12:28N 34°32' E 135°19'0 0.0
2017-Oct-12 11:52N 34°32' E 135°19'0 0.1
2017-Oct-12 11:28N 34°32' E 135°19'0 0.1
2017-Oct-12 10:52N 34°32' E 135°19'0 0.1
2017-Oct-12 10:28N 34°32' E 135°19'0 0.0
2017-Oct-12 09:58N 34°32' E 135°19'0 0.0
2017-Oct-12 09:04N 34°32' E 135°19'0 0.0
2017-Oct-12 08:58N 34°32' E 135°19'0 0.0
2017-Oct-12 08:22N 34°32' E 135°19'0 0.0
2017-Oct-12 07:58N 34°32' E 135°19'0 0.1
2017-Oct-12 07:16N 34°32' E 135°19'0 0.0
2017-Oct-12 06:52N 34°32' E 135°19'0 0.0
2017-Oct-12 06:28N 34°32' E 135°19'0 0.1
2017-Oct-12 05:57N 34°32' E 135°19'4 9.9
2017-Oct-12 05:30N 34°30' E 135°14'713.6
2017-Oct-12 05:00N 34°25' E 135°09'1213.8
2017-Oct-12 04:08N 34°16' E 134°59'214.7
2017-Oct-12 03:59N 34°14' E 134°59'613.4
2017-Oct-12 03:30N 34°08' E 134°57'  
2017-Oct-09 05:41N 33°57' E 134°55'414.1
2017-Oct-09 05:23N 34°01' E 134°58'513.6
2017-Oct-09 05:00N 34°05' E 135°02'510.7
2017-Oct-09 04:30N 34°07' E 135°07'0 0.4
2017-Oct-09 03:54N 34°07' E 135°07'0 0.0
2017-Oct-09 03:30N 34°07' E 135°07'0 0.0
2017-Oct-09 02:57N 34°07' E 135°07'0 0.0
2017-Oct-09 02:24N 34°07' E 135°07'0 0.0
2017-Oct-09 02:00N 34°07' E 135°07'0 0.0
2017-Oct-09 01:30N 34°07' E 135°07'0 0.0
2017-Oct-09 01:00N 34°07' E 135°07'0 0.0
2017-Oct-09 00:30N 34°07' E 135°07'0 0.0
2017-Oct-09 00:00N 34°07' E 135°07'0 0.7
2017-Oct-08 23:30N 34°07' E 135°07'1 1.3
2017-Oct-08 22:58N 34°08' E 135°07'0 0.1
2017-Oct-08 22:28N 34°08' E 135°07'0 0.0
2017-Oct-08 21:58N 34°08' E 135°07'0 0.1
2017-Oct-08 21:28N 34°08' E 135°07'0 0.0
2017-Oct-08 20:58N 34°08' E 135°07'0 0.1
2017-Oct-08 20:28N 34°08' E 135°07'0 0.1
2017-Oct-08 19:58N 34°08' E 135°07'0 0.1
2017-Oct-08 19:28N 34°08' E 135°07'0 0.0
2017-Oct-08 18:58N 34°08' E 135°07'0 0.1
2017-Oct-08 18:22N 34°08' E 135°07'0 0.1
2017-Oct-08 18:00N 34°08' E 135°07'4 8.4
2017-Oct-08 17:29N 34°05' E 135°03'7 0.2
2017-Oct-07 04:00N 33°58' E 135°02'714.5
2017-Oct-07 03:30N 34°05' E 135°03'511.0
2017-Oct-07 03:01N 34°09' E 135°08'0 0.3
2017-Oct-07 02:22N 34°09' E 135°08'0 0.0
2017-Oct-07 01:58N 34°09' E 135°08'0 0.0
2017-Oct-07 01:25N 34°09' E 135°08'0 0.1
2017-Oct-07 00:58N 34°10' E 135°08'0 0.0
2017-Oct-07 00:28N 34°10' E 135°08'0 0.0
2017-Oct-06 23:58N 34°10' E 135°08'0 0.0
2017-Oct-06 23:28N 34°10' E 135°08'0 0.0
2017-Oct-06 22:58N 34°10' E 135°08'0 0.0
2017-Oct-06 22:28N 34°09' E 135°08'0 0.0
2017-Oct-06 21:58N 34°09' E 135°08'0 0.0
2017-Oct-06 21:28N 34°09' E 135°08'0 0.0
2017-Oct-06 20:58N 34°09' E 135°08'0 0.0
2017-Oct-06 20:28N 34°09' E 135°08'0 0.0
2017-Oct-06 19:58N 34°10' E 135°08'0 0.0
2017-Oct-06 19:28N 34°09' E 135°08'0 0.0
2017-Oct-06 18:58N 34°10' E 135°08'0 0.0
2017-Oct-06 18:28N 34°10' E 135°08'0 0.0
2017-Oct-06 17:58N 34°10' E 135°08'0 0.0
2017-Oct-06 17:28N 34°09' E 135°08'0 0.0
2017-Oct-06 16:58N 34°09' E 135°08'0 0.1
2017-Oct-06 16:28N 34°09' E 135°08'0 0.0
2017-Oct-06 15:49N 34°09' E 135°08'0 0.0
2017-Oct-06 15:28N 34°09' E 135°08'0 0.0
2017-Oct-06 14:58N 34°09' E 135°08'0 0.0
2017-Oct-06 14:25N 34°09' E 135°08'0 0.0
2017-Oct-06 13:52N 34°09' E 135°08'0 0.0
2017-Oct-06 13:28N 34°09' E 135°08'0 0.0
2017-Oct-06 12:58N 34°09' E 135°08'0 0.0
2017-Oct-06 12:28N 34°09' E 135°08'0 0.0
2017-Oct-06 11:58N 34°09' E 135°08'0 0.0
2017-Oct-06 11:28N 34°09' E 135°08'0 0.0
2017-Oct-06 10:58N 34°09' E 135°08'0 0.0
2017-Oct-06 10:22N 34°09' E 135°08'0 0.1
2017-Oct-06 09:46N 34°09' E 135°08'0 0.2
2017-Oct-06 09:28N 34°09' E 135°08'0 0.0
2017-Oct-06 08:55N 34°09' E 135°08'  

Dump ship's entire track history